Time,TemperatureF,DewpointF,PressureIn,WindDirection,WindDirectionDegrees,WindSpeedMPH,WindSpeedGustMPH,Humidity,HourlyPrecipIn,Conditions,Clouds,dailyrainin,SoftwareType,DateUTC
2013-01-03 00:03:00,-999.0,-99.9,30.05,ESE,106,17.0,22.0,-999,-99.99,,,-99.99,,2013-01-03 05:03:00,
2013-01-03 00:12:00,16.0,-99.9,30.05,ESE,104,18.0,22.0,-999,-99.99,,,-99.99,,2013-01-03 05:12:00,
2013-01-03 00:23:00,-999.0,-99.9,30.04,ESE,108,17.0,24.0,-999,-99.99,,,-99.99,,2013-01-03 05:23:00,
2013-01-03 00:33:00,-999.0,-99.9,30.04,ESE,113,20.0,23.0,-999,-99.99,,,-99.99,,2013-01-03 05:33:00,
2013-01-03 00:42:00,16.0,-99.9,30.04,ESE,106,19.0,23.0,-999,-99.99,,,-99.99,,2013-01-03 05:42:00,
2013-01-03 00:53:00,-999.0,-99.9,30.04,ESE,114,18.0,21.0,-999,-99.99,,,-99.99,,2013-01-03 05:53:00,
2013-01-03 01:03:00,-999.0,-99.9,30.04,ESE,107,18.0,20.0,-999,-99.99,,,-99.99,,2013-01-03 06:03:00,
2013-01-03 01:12:00,-999.0,-99.9,30.03,ESE,110,18.0,24.0,-999,-99.99,,,-99.99,,2013-01-03 06:12:00,
2013-01-03 01:22:00,-999.0,-99.9,30.02,ESE,106,18.0,23.0,-999,-99.99,,,-99.99,,2013-01-03 06:22:00,
2013-01-03 01:33:00,-999.0,-99.9,30.02,ESE,114,17.0,23.0,-999,-99.99,,,-99.99,,2013-01-03 06:33:00,
2013-01-03 01:43:00,-999.0,-99.9,30.02,ESE,108,18.0,21.0,-999,-99.99,,,-99.99,,2013-01-03 06:43:00,
2013-01-03 01:53:00,16.0,-99.9,30.02,ESE,108,17.0,20.0,-999,-99.99,,,-99.99,,2013-01-03 06:53:00,
2013-01-03 02:02:00,-999.0,-99.9,30.02,ESE,108,16.0,20.0,-999,-99.99,,,-99.99,,2013-01-03 07:02:00,
2013-01-03 02:12:00,16.0,-99.9,30.01,East,97,17.0,20.0,-999,-99.99,,,-99.99,,2013-01-03 07:12:00,
2013-01-03 02:22:00,-999.0,-99.9,30.01,ESE,103,15.0,19.0,-999,-99.99,,,-99.99,,2013-01-03 07:22:00,
2013-01-03 02:33:00,-999.0,-99.9,30.01,East,99,15.0,18.0,-999,-99.99,,,-99.99,,2013-01-03 07:33:00,
2013-01-03 02:43:00,-999.0,-99.9,30.00,ESE,102,16.0,19.0,-999,-99.99,,,-99.99,,2013-01-03 07:43:00,
2013-01-03 02:53:00,-999.0,-99.9,30.00,East,100,16.0,19.0,-999,-99.99,,,-99.99,,2013-01-03 07:53:00,
2013-01-03 03:02:00,-999.0,-99.9,29.99,East,99,15.0,18.0,-999,-99.99,,,-99.99,,2013-01-03 08:02:00,
2013-01-03 03:12:00,-999.0,-99.9,29.99,East,100,14.0,18.0,-999,-99.99,,,-99.99,,2013-01-03 08:12:00,
2013-01-03 03:23:00,17.0,-99.9,29.99,ESE,107,13.0,15.0,-999,-99.99,,,-99.99,,2013-01-03 08:23:00,
2013-01-03 03:33:00,-999.0,-99.9,29.99,East,99,15.0,17.0,-999,-99.99,,,-99.99,,2013-01-03 08:33:00,
2013-01-03 03:43:00,17.0,-99.9,29.99,East,96,14.0,16.0,-999,-99.99,,,-99.99,,2013-01-03 08:43:00,
2013-01-03 03:53:00,-999.0,-99.9,29.98,ESE,103,14.0,16.0,-999,-99.99,,,-99.99,,2013-01-03 08:53:00,
2013-01-03 04:03:00,-999.0,-99.9,29.98,ESE,103,15.0,17.0,-999,-99.99,,,-99.99,,2013-01-03 09:03:00,
2013-01-03 04:12:00,17.0,-99.9,29.98,ESE,110,12.0,17.0,-999,-99.99,,,-99.99,,2013-01-03 09:12:00,
2013-01-03 04:23:00,-999.0,-99.9,29.97,ESE,104,12.0,14.0,-999,-99.99,,,-99.99,,2013-01-03 09:23:00,
2013-01-03 04:34:00,-999.0,-99.9,29.96,ESE,106,14.0,16.0,-999,-99.99,,,-99.99,,2013-01-03 09:34:00,
2013-01-03 04:43:00,-999.0,-99.9,29.96,ESE,106,11.0,15.0,-999,-99.99,,,-99.99,,2013-01-03 09:43:00,
2013-01-03 04:53:00,17.0,-99.9,29.96,ESE,104,11.0,13.0,-999,-99.99,,,-99.99,,2013-01-03 09:53:00,
2013-01-03 05:02:00,-999.0,-99.9,29.96,ESE,106,11.0,13.0,-999,-99.99,,,-99.99,,2013-01-03 10:02:00,
2013-01-03 05:12:00,17.0,-99.9,29.96,ESE,114,10.0,13.0,-999,-99.99,,,-99.99,,2013-01-03 10:12:00,
2013-01-03 05:23:00,-999.0,-99.9,29.95,ESE,108,11.0,14.0,-999,-99.99,,,-99.99,,2013-01-03 10:23:00,
2013-01-03 05:33:00,-999.0,-99.9,29.94,ESE,104,11.0,13.0,-999,-99.99,,,-99.99,,2013-01-03 10:33:00,
2013-01-03 05:43:00,18.0,-99.9,29.95,East,97,11.0,14.0,-999,-99.99,,,-99.99,,2013-01-03 10:43:00,
2013-01-03 05:53:00,-999.0,-99.9,29.94,ESE,107,11.0,14.0,-999,-99.99,,,-99.99,,2013-01-03 10:53:00,
2013-01-03 06:03:00,-999.0,-99.9,29.93,ESE,104,11.0,14.0,-999,-99.99,,,-99.99,,2013-01-03 11:03:00,
2013-01-03 06:12:00,-999.0,-99.9,29.93,ESE,104,11.0,13.0,-999,-99.99,,,-99.99,,2013-01-03 11:12:00,
2013-01-03 06:23:00,18.0,-99.9,29.93,ESE,112,9.0,13.0,-999,-99.99,,,-99.99,,2013-01-03 11:23:00,
2013-01-03 06:34:00,-999.0,-99.9,29.93,ESE,102,10.0,12.0,-999,-99.99,,,-99.99,,2013-01-03 11:34:00,
2013-01-03 06:43:00,19.0,-99.9,29.93,ESE,113,9.0,12.0,-999,-99.99,,,-99.99,,2013-01-03 11:43:00,
2013-01-03 06:53:00,19.0,-99.9,29.93,ESE,113,9.0,12.0,-999,-99.99,,,-99.99,,2013-01-03 11:53:00,
2013-01-03 07:03:00,-999.0,-99.9,29.93,SE,137,5.0,9.0,-999,-99.99,,,-99.99,,2013-01-03 12:03:00,
2013-01-03 07:12:00,18.0,-99.9,29.93,SE,146,4.0,9.0,-999,-99.99,,,-99.99,,2013-01-03 12:12:00,
2013-01-03 07:23:00,-999.0,-99.9,29.94,SE,138,4.0,7.0,-999,-99.99,,,-99.99,,2013-01-03 12:23:00,
2013-01-03 07:33:00,-999.0,-99.9,29.94,SE,124,4.0,6.0,-999,-99.99,,,-99.99,,2013-01-03 12:33:00,
2013-01-03 07:43:00,-999.0,-99.9,29.93,SSE,162,3.0,4.0,-999,-99.99,,,-99.99,,2013-01-03 12:43:00,
2013-01-03 07:53:00,-999.0,-99.9,29.93,SSE,166,4.0,5.0,-999,-99.99,,,-99.99,,2013-01-03 12:53:00,
2013-01-03 08:03:00,-999.0,-99.9,29.92,SSE,157,4.0,6.0,-999,-99.99,,,-99.99,,2013-01-03 13:03:00,
2013-01-03 08:13:00,-999.0,-99.9,29.91,SSE,150,4.0,6.0,-999,-99.99,,,-99.99,,2013-01-03 13:13:00,
2013-01-03 08:22:00,17.0,-99.9,29.91,SE,146,4.0,6.0,-999,-99.99,,,-99.99,,2013-01-03 13:22:00,
2013-01-03 08:33:00,-999.0,-99.9,29.91,SSE,147,4.0,6.0,-999,-99.99,,,-99.99,,2013-01-03 13:33:00,
2013-01-03 08:43:00,17.0,-99.9,29.91,SSE,157,2.0,6.0,-999,-99.99,,,-99.99,,2013-01-03 13:43:00,
2013-01-03 08:53:00,-999.0,-99.9,29.91,SSE,151,2.0,2.0,-999,-99.99,,,-99.99,,2013-01-03 13:53:00,
2013-01-03 09:03:00,-999.0,-99.9,29.91,ESE,122,3.0,4.0,-999,-99.99,,,-99.99,,2013-01-03 14:03:00,
2013-01-03 09:12:00,17.0,-99.9,29.91,SE,125,4.0,5.0,-999,-99.99,,,-99.99,,2013-01-03 14:12:00,
2013-01-03 09:23:00,-999.0,-99.9,29.91,SE,128,4.0,6.0,-999,-99.99,,,-99.99,,2013-01-03 14:23:00,
2013-01-03 09:33:00,-999.0,-99.9,29.91,SE,133,2.0,5.0,-999,-99.99,,,-99.99,,2013-01-03 14:33:00,
2013-01-03 09:43:00,-999.0,-99.9,29.91,SE,133,2.0,5.0,-999,-99.99,,,-99.99,,2013-01-03 14:43:00,
2013-01-03 09:53:00,18.0,-99.9,29.90,SSE,149,2.0,3.0,-999,-99.99,,,-99.99,,2013-01-03 14:53:00,
2013-01-03 10:03:00,-999.0,-99.9,29.90,SE,131,1.0,2.0,-999,-99.99,,,-99.99,,2013-01-03 15:03:00,
2013-01-03 10:13:00,19.0,-99.9,29.90,ESE,119,1.0,2.0,-999,-99.99,,,-99.99,,2013-01-03 15:13:00,
2013-01-03 10:23:00,19.0,-99.9,29.90,ESE,119,1.0,2.0,-999,-99.99,,,-99.99,,2013-01-03 15:23:00,
2013-01-03 10:34:00,-999.0,-99.9,29.90,South,181,1.0,3.0,-999,-99.99,,,-99.99,,2013-01-03 15:34:00,
2013-01-03 10:43:00,22.0,-99.9,29.90,West,278,2.0,7.0,-999,-99.99,,,-99.99,,2013-01-03 15:43:00,
2013-01-03 10:53:00,-999.0,-99.9,29.90,WSW,253,4.0,8.0,-999,-99.99,,,-99.99,,2013-01-03 15:53:00,
2013-01-03 11:03:00,-999.0,-99.9,29.90,WSW,247,11.0,22.0,-999,-99.99,,,-99.99,,2013-01-03 16:03:00,
2013-01-03 11:12:00,-999.0,-99.9,29.90,WSW,254,9.0,19.0,-999,-99.99,,,-99.99,,2013-01-03 16:12:00,
2013-01-03 11:23:00,-999.0,-99.9,29.90,WSW,258,9.0,18.0,-999,-99.99,,,-99.99,,2013-01-03 16:23:00,
2013-01-03 11:34:00,-999.0,-99.9,29.91,West,259,12.0,17.0,-999,-99.99,,,-99.99,,2013-01-03 16:34:00,
2013-01-03 11:43:00,-999.0,-99.9,29.90,WSW,256,10.0,19.0,-999,-99.99,,,-99.99,,2013-01-03 16:43:00,
2013-01-03 11:53:00,25.0,-99.9,29.90,WSW,254,9.0,18.0,-999,-99.99,,,-99.99,,2013-01-03 16:53:00,
2013-01-03 12:03:00,-999.0,-99.9,29.90,West,260,8.0,17.0,-999,-99.99,,,-99.99,,2013-01-03 17:03:00,
2013-01-03 12:13:00,25.0,-99.9,29.90,West,259,12.0,17.0,-999,-99.99,,,-99.99,,2013-01-03 17:13:00,
2013-01-03 12:23:00,-999.0,-99.9,29.90,West,269,14.0,22.0,-999,-99.99,,,-99.99,,2013-01-03 17:23:00,
2013-01-03 12:33:00,-999.0,-99.9,29.90,West,266,12.0,21.0,-999,-99.99,,,-99.99,,2013-01-03 17:33:00,
2013-01-03 12:43:00,-999.0,-99.9,29.90,West,277,21.0,27.0,-999,-99.99,,,-99.99,,2013-01-03 17:43:00,
2013-01-03 12:53:00,-999.0,-99.9,29.90,WNW,298,22.0,29.0,-999,-99.99,,,-99.99,,2013-01-03 17:53:00,
2013-01-03 13:03:00,-999.0,-99.9,29.90,NW,306,26.0,34.0,-999,-99.99,,,-99.99,,2013-01-03 18:03:00,
2013-01-03 13:13:00,-999.0,-99.9,29.90,NW,304,28.0,34.0,-999,-99.99,,,-99.99,,2013-01-03 18:13:00,
2013-01-03 13:23:00,28.0,-99.9,29.90,NW,304,26.0,35.0,-999,-99.99,,,-99.99,,2013-01-03 18:23:00,
2013-01-03 13:33:00,-999.0,-99.9,29.90,NW,311,27.0,35.0,-999,-99.99,,,-99.99,,2013-01-03 18:33:00,
2013-01-03 13:43:00,27.0,-99.9,29.90,NW,309,29.0,32.0,-999,-99.99,,,-99.99,,2013-01-03 18:43:00,
2013-01-03 13:53:00,-999.0,-99.9,29.90,NW,313,25.0,35.0,-999,-99.99,,,-99.99,,2013-01-03 18:53:00,
2013-01-03 14:03:00,-999.0,-99.9,29.90,NW,306,24.0,30.0,-999,-99.99,,,-99.99,,2013-01-03 19:03:00,
2013-01-03 14:13:00,27.0,-99.9,29.90,WNW,301,23.0,30.0,-999,-99.99,,,-99.99,,2013-01-03 19:13:00,
2013-01-03 14:52:00,-999.0,-99.9,29.91,WNW,298,23.0,27.0,-999,-99.99,,,-99.99,,2013-01-03 19:52:00,
2013-01-03 14:57:00,-999.0,-99.9,29.91,WNW,301,23.0,32.0,-999,-99.99,,,-99.99,,2013-01-03 19:57:00,
2013-01-03 15:03:00,-999.0,-99.9,29.92,WNW,299,24.0,32.0,-999,-99.99,,,-99.99,,2013-01-03 20:03:00,
2013-01-03 15:13:00,26.0,-99.9,29.92,WNW,303,27.0,32.0,-999,-99.99,,,-99.99,,2013-01-03 20:13:00,
2013-01-03 15:23:00,-999.0,-99.9,29.92,WNW,295,21.0,30.0,-999,-99.99,,,-99.99,,2013-01-03 20:23:00,
2013-01-03 15:33:00,-999.0,-99.9,29.93,WNW,303,26.0,32.0,-999,-99.99,,,-99.99,,2013-01-03 20:33:00,
2013-01-03 15:43:00,-999.0,-99.9,29.93,WNW,303,24.0,29.0,-999,-99.99,,,-99.99,,2013-01-03 20:43:00,
2013-01-03 15:53:00,-999.0,-99.9,29.93,NW,305,27.0,31.0,-999,-99.99,,,-99.99,,2013-01-03 20:53:00,
2013-01-03 16:03:00,-999.0,-99.9,29.93,WNW,300,25.0,36.0,-999,-99.99,,,-99.99,,2013-01-03 21:03:00,
2013-01-03 16:13:00,-999.0,-99.9,29.94,WNW,293,20.0,29.0,-999,-99.99,,,-99.99,,2013-01-03 21:13:00,
2013-01-03 16:23:00,26.0,-99.9,29.94,WNW,290,20.0,28.0,-999,-99.99,,,-99.99,,2013-01-03 21:23:00,
2013-01-03 16:38:00,-999.0,-99.9,29.94,WNW,290,21.0,26.0,-999,-99.99,,,-99.99,,2013-01-03 21:38:00,
2013-01-03 16:51:00,26.0,-99.9,29.94,WNW,283,22.0,32.0,-999,-99.99,,,-99.99,,2013-01-03 21:51:00,
2013-01-03 17:03:00,-999.0,-99.9,29.95,WNW,290,21.0,32.0,-999,-99.99,,,-99.99,,2013-01-03 22:03:00,
2013-01-03 17:12:00,25.0,-99.9,29.95,WNW,293,20.0,29.0,-999,-99.99,,,-99.99,,2013-01-03 22:12:00,
2013-01-03 17:23:00,-999.0,-99.9,29.95,WNW,290,21.0,28.0,-999,-99.99,,,-99.99,,2013-01-03 22:23:00,
2013-01-03 17:33:00,-999.0,-99.9,29.96,WNW,287,21.0,26.0,-999,-99.99,,,-99.99,,2013-01-03 22:33:00,
2013-01-03 17:43:00,-999.0,-99.9,29.96,WNW,294,20.0,25.0,-999,-99.99,,,-99.99,,2013-01-03 22:43:00,
2013-01-03 17:53:00,25.0,-99.9,29.96,WNW,291,18.0,28.0,-999,-99.99,,,-99.99,,2013-01-03 22:53:00,
2013-01-03 18:03:00,-999.0,-99.9,29.96,WNW,288,20.0,29.0,-999,-99.99,,,-99.99,,2013-01-03 23:03:00,
2013-01-03 18:13:00,25.0,-99.9,29.96,WNW,289,20.0,26.0,-999,-99.99,,,-99.99,,2013-01-03 23:13:00,
2013-01-03 18:23:00,-999.0,-99.9,29.96,WNW,289,22.0,27.0,-999,-99.99,,,-99.99,,2013-01-03 23:23:00,
2013-01-03 18:33:00,-999.0,-99.9,29.97,West,272,18.0,28.0,-999,-99.99,,,-99.99,,2013-01-03 23:33:00,
2013-01-03 18:43:00,26.0,-99.9,29.96,West,277,22.0,29.0,-999,-99.99,,,-99.99,,2013-01-03 23:43:00,
2013-01-03 18:53:00,-999.0,-99.9,29.96,WNW,287,16.0,25.0,-999,-99.99,,,-99.99,,2013-01-03 23:53:00,
2013-01-03 19:03:00,-999.0,-99.9,29.96,WSW,254,7.0,13.0,-999,-99.99,,,-99.99,,2013-01-04 00:03:00,
2013-01-03 19:13:00,-999.0,-99.9,29.96,WSW,251,9.0,15.0,-999,-99.99,,,-99.99,,2013-01-04 00:13:00,
2013-01-03 19:23:00,24.0,-99.9,29.96,WSW,245,7.0,14.0,-999,-99.99,,,-99.99,,2013-01-04 00:23:00,
2013-01-03 19:33:00,-999.0,-99.9,29.96,WSW,252,7.0,12.0,-999,-99.99,,,-99.99,,2013-01-04 00:33:00,
2013-01-03 19:43:00,23.0,-99.9,29.96,WSW,252,7.0,15.0,-999,-99.99,,,-99.99,,2013-01-04 00:43:00,
2013-01-03 19:53:00,-999.0,-99.9,29.96,WSW,249,10.0,14.0,-999,-99.99,,,-99.99,,2013-01-04 00:53:00,
2013-01-03 20:02:00,-999.0,-99.9,29.96,WSW,240,8.0,14.0,-999,-99.99,,,-99.99,,2013-01-04 01:02:00,
2013-01-03 20:13:00,24.0,-99.9,29.96,WSW,244,9.0,16.0,-999,-99.99,,,-99.99,,2013-01-04 01:13:00,
2013-01-03 20:22:00,-999.0,-99.9,29.95,WSW,245,11.0,15.0,-999,-99.99,,,-99.99,,2013-01-04 01:22:00,
2013-01-03 20:33:00,-999.0,-99.9,29.95,WSW,248,6.0,13.0,-999,-99.99,,,-99.99,,2013-01-04 01:33:00,
2013-01-03 20:43:00,-999.0,-99.9,29.93,SW,230,5.0,9.0,-999,-99.99,,,-99.99,,2013-01-04 01:43:00,
2013-01-03 20:53:00,-999.0,-99.9,29.94,WSW,244,5.0,12.0,-999,-99.99,,,-99.99,,2013-01-04 01:53:00,
2013-01-03 21:02:00,-999.0,-99.9,29.93,SW,232,7.0,13.0,-999,-99.99,,,-99.99,,2013-01-04 02:02:00,
2013-01-03 21:12:00,-999.0,-99.9,29.93,WSW,249,7.0,14.0,-999,-99.99,,,-99.99,,2013-01-04 02:12:00,
2013-01-03 21:23:00,24.0,-99.9,29.93,WSW,248,6.0,14.0,-999,-99.99,,,-99.99,,2013-01-04 02:23:00,
2013-01-03 21:33:00,-999.0,-99.9,29.92,WSW,237,6.0,10.0,-999,-99.99,,,-99.99,,2013-01-04 02:33:00,
2013-01-03 21:43:00,23.0,-99.9,29.91,SSW,193,2.0,9.0,-999,-99.99,,,-99.99,,2013-01-04 02:43:00,
2013-01-03 21:53:00,-999.0,-99.9,29.91,SW,232,2.0,6.0,-999,-99.99,,,-99.99,,2013-01-04 02:53:00,
2013-01-03 22:03:00,-999.0,-99.9,29.91,WSW,256,5.0,11.0,-999,-99.99,,,-99.99,,2013-01-04 03:03:00,
2013-01-03 22:12:00,22.0,-99.9,29.90,SW,221,3.0,9.0,-999,-99.99,,,-99.99,,2013-01-04 03:12:00,
2013-01-03 22:23:00,-999.0,-99.9,29.89,WSW,237,3.0,10.0,-999,-99.99,,,-99.99,,2013-01-04 03:23:00,
2013-01-03 22:33:00,-999.0,-99.9,29.89,WSW,241,5.0,10.0,-999,-99.99,,,-99.99,,2013-01-04 03:33:00,
2013-01-03 22:43:00,23.0,-99.9,29.89,WSW,246,6.0,12.0,-999,-99.99,,,-99.99,,2013-01-04 03:43:00,
2013-01-03 22:53:00,-999.0,-99.9,29.87,WSW,242,8.0,13.0,-999,-99.99,,,-99.99,,2013-01-04 03:53:00,
2013-01-03 23:02:00,-999.0,-99.9,29.86,WSW,254,6.0,12.0,-999,-99.99,,,-99.99,,2013-01-04 04:02:00,
2013-01-03 23:12:00,23.0,-99.9,29.85,WSW,249,7.0,14.0,-999,-99.99,,,-99.99,,2013-01-04 04:12:00,
2013-01-03 23:22:00,-999.0,-99.9,29.84,SW,231,8.0,12.0,-999,-99.99,,,-99.99,,2013-01-04 04:22:00,
2013-01-03 23:33:00,-999.0,-99.9,29.83,SW,236,5.0,12.0,-999,-99.99,,,-99.99,,2013-01-04 04:33:00,
2013-01-03 23:42:00,-999.0,-99.9,29.82,WSW,251,9.0,22.0,-999,-99.99,,,-99.99,,2013-01-04 04:42:00,
2013-01-03 23:53:00,-999.0,-99.9,29.81,SW,229,9.0,19.0,-999,-99.99,,,-99.99,,2013-01-04 04:53:00,